createdAt,value
2023-01-19T00:00:00.487Z,4.00
2023-01-19T00:01:00.440Z,4.00
2023-01-19T00:02:00.491Z,4.00
2023-01-19T00:03:02.099Z,4.00
2023-01-19T00:04:00.455Z,4.00
2023-01-19T00:05:00.490Z,4.00
2023-01-19T00:06:04.522Z,4.00
2023-01-19T00:07:00.447Z,4.00
2023-01-19T00:08:00.853Z,4.00
2023-01-19T00:09:00.476Z,4.00
2023-01-19T00:10:00.474Z,4.00
2023-01-19T00:11:00.663Z,3.50
2023-01-19T00:12:00.448Z,3.50
2023-01-19T00:13:00.981Z,3.50
2023-01-19T00:14:00.513Z,3.50
2023-01-19T00:15:00.482Z,3.50
2023-01-19T00:16:00.445Z,3.50
2023-01-19T00:17:00.495Z,3.50
2023-01-19T00:18:00.443Z,3.50
2023-01-19T00:19:00.470Z,3.50
2023-01-19T00:20:00.465Z,3.50
2023-01-19T00:21:00.450Z,3.50
2023-01-19T00:22:00.457Z,3.50
2023-01-19T00:23:01.463Z,3.50
2023-01-19T00:24:00.461Z,3.50
2023-01-19T00:25:00.475Z,3.50
2023-01-19T00:26:00.471Z,3.50
2023-01-19T00:27:00.455Z,3.50
2023-01-19T00:28:01.665Z,3.50
2023-01-19T00:29:00.461Z,3.50
2023-01-19T00:30:00.906Z,3.50
2023-01-19T00:31:00.447Z,3.50
2023-01-19T00:32:01.162Z,3.50
2023-01-19T00:33:00.763Z,3.50
2023-01-19T00:34:00.983Z,3.50
2023-01-19T00:35:00.494Z,3.50
2023-01-19T00:36:00.565Z,3.50
2023-01-19T00:37:00.457Z,3.50
2023-01-19T00:38:00.933Z,3.50
2023-01-19T00:39:00.589Z,3.50
2023-01-19T00:40:00.605Z,3.50
2023-01-19T00:41:00.650Z,3.50
2023-01-19T00:42:00.471Z,3.20
2023-01-19T00:43:00.869Z,3.20
2023-01-19T00:44:00.447Z,3.20
2023-01-19T00:45:00.559Z,3.20
2023-01-19T00:46:00.521Z,3.20
2023-01-19T00:47:00.486Z,3.20
2023-01-19T00:48:00.466Z,3.20
2023-01-19T00:49:00.462Z,3.20
2023-01-19T00:50:00.464Z,3.20
2023-01-19T00:51:00.473Z,3.20
2023-01-19T00:52:00.479Z,3.20
2023-01-19T00:53:00.830Z,3.20
2023-01-19T00:54:00.448Z,3.20
2023-01-19T00:55:00.458Z,3.20
2023-01-19T00:56:00.541Z,3.20
2023-01-19T00:57:00.559Z,3.20
2023-01-19T00:58:00.481Z,3.20
2023-01-19T00:59:00.518Z,3.20
2023-01-19T01:00:00.476Z,3.20
2023-01-19T01:01:00.502Z,3.20
2023-01-19T01:02:00.701Z,3.20
2023-01-19T01:03:00.930Z,3.20
2023-01-19T01:04:00.465Z,3.20
2023-01-19T01:05:00.455Z,3.20
2023-01-19T01:06:00.570Z,3.20
2023-01-19T01:07:00.471Z,3.20
2023-01-19T01:08:00.543Z,3.20
2023-01-19T01:09:00.435Z,3.20
2023-01-19T01:10:00.476Z,3.20
2023-01-19T01:11:00.461Z,3.20
2023-01-19T01:12:00.547Z,3.30
2023-01-19T01:13:00.469Z,3.30
2023-01-19T01:14:00.475Z,3.30
2023-01-19T01:15:00.472Z,3.30
2023-01-19T01:16:00.467Z,3.30
2023-01-19T01:17:00.494Z,3.30
2023-01-19T01:18:00.461Z,3.30
2023-01-19T01:19:00.645Z,3.30
2023-01-19T01:20:00.477Z,3.30
2023-01-19T01:21:01.234Z,3.30
2023-01-19T01:22:00.455Z,3.30
2023-01-19T01:23:00.782Z,3.30
2023-01-19T01:24:00.775Z,3.30
2023-01-19T01:25:00.504Z,3.30
2023-01-19T01:26:00.469Z,3.30
2023-01-19T01:27:00.502Z,3.30
2023-01-19T01:28:00.444Z,3.30
2023-01-19T01:29:00.487Z,3.30
2023-01-19T01:30:00.497Z,3.30
2023-01-19T01:31:00.438Z,3.30
2023-01-19T01:32:00.983Z,3.30
2023-01-19T01:33:01.167Z,3.30
2023-01-19T01:34:00.452Z,3.30
2023-01-19T01:35:00.605Z,3.30
2023-01-19T01:36:00.461Z,3.30
2023-01-19T01:37:00.453Z,3.30
2023-01-19T01:38:00.458Z,3.30
2023-01-19T01:39:00.485Z,3.30
2023-01-19T01:40:00.484Z,3.30
2023-01-19T01:41:00.462Z,3.30
2023-01-19T01:42:00.578Z,3.90
2023-01-19T01:43:01.660Z,3.90
2023-01-19T01:44:00.459Z,3.90
2023-01-19T01:45:02.320Z,3.90
2023-01-19T01:46:00.579Z,3.90
2023-01-19T01:47:00.541Z,3.90
2023-01-19T01:48:01.458Z,3.90
2023-01-19T01:49:03.228Z,3.90
2023-01-19T01:50:10.372Z,3.90
2023-01-19T01:51:02.975Z,3.90
2023-01-19T01:52:00.594Z,3.90
2023-01-19T01:53:06.963Z,3.90
2023-01-19T01:54:10.369Z,3.90
2023-01-19T01:55:01.436Z,3.90
2023-01-19T01:56:02.180Z,3.90
2023-01-19T01:57:02.942Z,3.90
2023-01-19T01:58:01.838Z,3.90
2023-01-19T01:59:03.874Z,3.90
2023-01-19T02:00:01.005Z,3.90
2023-01-19T02:01:00.658Z,3.90
2023-01-19T02:02:03.773Z,3.90
2023-01-19T02:03:00.821Z,3.90
2023-01-19T02:04:00.468Z,3.90
2023-01-19T02:05:10.382Z,3.90
2023-01-19T02:06:02.906Z,3.90
2023-01-19T02:07:00.506Z,3.90
2023-01-19T02:08:02.455Z,3.90
2023-01-19T02:09:03.562Z,3.90
2023-01-19T02:10:00.771Z,3.90
2023-01-19T02:11:01.416Z,3.90
2023-01-19T02:12:00.463Z,3.60
2023-01-19T02:13:01.935Z,3.60
2023-01-19T02:14:02.826Z,3.60
2023-01-19T02:15:00.500Z,3.60
2023-01-19T02:16:01.956Z,3.60
2023-01-19T02:17:00.517Z,3.60
2023-01-19T02:18:00.533Z,3.60
2023-01-19T02:19:00.514Z,3.60
2023-01-19T02:20:00.496Z,3.60
2023-01-19T02:21:10.393Z,3.60
2023-01-19T02:22:03.721Z,3.60
2023-01-19T02:23:02.795Z,3.60
2023-01-19T02:24:01.208Z,3.60
2023-01-19T02:25:02.493Z,3.60
2023-01-19T02:26:00.918Z,3.60
2023-01-19T02:27:00.706Z,3.60
2023-01-19T02:28:00.887Z,3.60
2023-01-19T02:29:02.157Z,3.60
2023-01-19T02:30:00.630Z,3.60
2023-01-19T02:31:00.558Z,3.60
2023-01-19T02:32:01.223Z,3.60
2023-01-19T02:33:00.829Z,3.60
2023-01-19T02:34:01.176Z,3.60
2023-01-19T02:35:00.526Z,3.60
2023-01-19T02:36:01.064Z,3.60
2023-01-19T02:37:02.251Z,3.60
2023-01-19T02:38:01.633Z,3.60
2023-01-19T02:39:01.109Z,3.60
2023-01-19T02:40:01.721Z,3.60
2023-01-19T02:41:01.846Z,3.60
2023-01-19T02:42:03.482Z,3.40
2023-01-19T02:43:01.684Z,3.40
2023-01-19T02:44:01.864Z,3.40
2023-01-19T02:45:00.930Z,3.40
2023-01-19T02:46:00.564Z,3.40
2023-01-19T02:47:00.478Z,3.40
2023-01-19T02:48:00.617Z,3.40
2023-01-19T02:49:00.683Z,3.40
2023-01-19T02:50:00.454Z,3.40
2023-01-19T02:51:02.371Z,3.40
2023-01-19T02:52:00.515Z,3.40
2023-01-19T02:53:10.362Z,3.40
2023-01-19T02:54:01.447Z,3.40
2023-01-19T02:55:03.538Z,3.40
2023-01-19T02:56:10.359Z,3.40
2023-01-19T02:57:10.363Z,3.40
2023-01-19T02:58:10.387Z,3.40
2023-01-19T02:59:00.436Z,3.40
2023-01-19T03:00:06.468Z,3.40
2023-01-19T03:01:00.562Z,3.40
2023-01-19T03:02:08.623Z,3.40
2023-01-19T03:03:10.372Z,3.40
2023-01-19T03:04:07.978Z,3.40
2023-01-19T03:05:10.386Z,3.40
2023-01-19T03:06:01.444Z,3.40
2023-01-19T03:07:10.399Z,3.40
2023-01-19T03:08:10.367Z,3.40
2023-01-19T03:09:03.366Z,3.40
2023-01-19T03:10:04.376Z,3.40
2023-01-19T03:11:04.961Z,3.40
2023-01-19T03:12:10.371Z,3.70
2023-01-19T03:13:10.357Z,3.70
2023-01-19T03:14:06.343Z,3.70
2023-01-19T03:15:04.087Z,3.70
2023-01-19T03:16:10.467Z,3.70
2023-01-19T03:17:03.822Z,3.70
2023-01-19T03:18:01.117Z,3.70
2023-01-19T03:19:04.781Z,3.70
2023-01-19T03:20:01.708Z,3.70
2023-01-19T03:21:04.490Z,3.70
2023-01-19T03:22:03.980Z,3.70
2023-01-19T03:23:04.401Z,3.70
2023-01-19T03:24:01.227Z,3.70
2023-01-19T03:25:00.569Z,3.70
2023-01-19T03:26:01.761Z,3.70
2023-01-19T03:27:05.285Z,3.70
2023-01-19T03:28:00.946Z,3.70
2023-01-19T03:29:01.616Z,3.70
2023-01-19T03:30:04.822Z,3.70
2023-01-19T03:31:04.698Z,3.70
2023-01-19T03:32:02.242Z,3.70
2023-01-19T03:33:06.233Z,3.70
2023-01-19T03:34:04.744Z,3.70
2023-01-19T03:35:02.164Z,3.70
2023-01-19T03:36:04.446Z,3.70
2023-01-19T03:37:02.599Z,3.70
2023-01-19T03:38:02.581Z,3.70
2023-01-19T03:39:02.258Z,3.70
2023-01-19T03:40:00.539Z,3.70
2023-01-19T03:41:01.631Z,3.70
2023-01-19T03:42:03.040Z,4.60
2023-01-19T03:43:01.976Z,4.60
2023-01-19T03:44:01.402Z,4.60
2023-01-19T03:45:00.711Z,4.60
2023-01-19T03:46:01.635Z,4.60
2023-01-19T03:47:00.955Z,4.60
2023-01-19T03:48:00.629Z,4.60
2023-01-19T03:49:00.595Z,4.60
2023-01-19T03:50:02.455Z,4.60
2023-01-19T03:51:03.086Z,4.60
2023-01-19T03:52:00.708Z,4.60
2023-01-19T03:53:08.901Z,4.60
2023-01-19T03:54:00.448Z,4.60
2023-01-19T03:55:01.030Z,4.60
2023-01-19T03:56:00.487Z,4.60
2023-01-19T03:57:00.524Z,4.60
2023-01-19T03:58:00.486Z,4.60
2023-01-19T03:59:00.516Z,4.60
2023-01-19T04:00:00.458Z,4.60
2023-01-19T04:01:00.618Z,4.60
2023-01-19T04:02:00.660Z,4.60
2023-01-19T04:03:00.948Z,4.60
2023-01-19T04:04:00.463Z,4.60
2023-01-19T04:05:00.456Z,4.60
2023-01-19T04:06:00.488Z,4.60
2023-01-19T04:07:00.494Z,4.60
2023-01-19T04:08:00.452Z,4.60
2023-01-19T04:09:00.458Z,4.60
2023-01-19T04:10:00.483Z,4.60
2023-01-19T04:11:00.455Z,4.60
2023-01-19T04:12:00.519Z,4.10
2023-01-19T04:13:01.505Z,4.10
2023-01-19T04:14:00.483Z,4.10
2023-01-19T04:15:00.441Z,4.10
2023-01-19T04:16:00.835Z,4.10
2023-01-19T04:17:00.518Z,4.10
2023-01-19T04:18:00.496Z,4.10
2023-01-19T04:19:00.456Z,4.10
2023-01-19T04:20:00.466Z,4.10
2023-01-19T04:21:01.158Z,4.10
2023-01-19T04:22:00.460Z,4.10
2023-01-19T04:23:01.195Z,4.10
2023-01-19T04:24:00.477Z,4.10
2023-01-19T04:25:00.457Z,4.10
2023-01-19T04:26:01.326Z,4.10
2023-01-19T04:27:00.449Z,4.10
2023-01-19T04:28:00.446Z,4.10
2023-01-19T04:29:00.492Z,4.10
2023-01-19T04:30:00.846Z,4.10
2023-01-19T04:31:00.497Z,4.10
2023-01-19T04:32:00.486Z,4.10
2023-01-19T04:33:00.804Z,4.10
2023-01-19T04:34:00.920Z,4.10
2023-01-19T04:35:00.520Z,4.10
2023-01-19T04:36:00.717Z,4.10
2023-01-19T04:37:00.454Z,4.10
2023-01-19T04:38:00.487Z,4.10
2023-01-19T04:39:00.454Z,4.10
2023-01-19T04:40:00.468Z,4.10
2023-01-19T04:41:00.463Z,4.10
2023-01-19T04:42:00.473Z,5.10
2023-01-19T04:43:01.064Z,5.10
2023-01-19T04:44:00.447Z,5.10
2023-01-19T04:45:00.440Z,5.10
2023-01-19T04:46:00.508Z,5.10
2023-01-19T04:47:00.459Z,5.10
2023-01-19T04:48:00.457Z,5.10
2023-01-19T04:49:00.464Z,5.10
2023-01-19T04:50:00.490Z,5.10
2023-01-19T04:51:00.489Z,5.10
2023-01-19T04:52:00.474Z,5.10
2023-01-19T04:53:00.977Z,5.10
2023-01-19T04:54:00.671Z,5.10
2023-01-19T04:55:02.554Z,5.10
2023-01-19T04:56:00.457Z,5.10
2023-01-19T04:57:00.479Z,5.10
2023-01-19T04:58:00.457Z,5.10
2023-01-19T04:59:00.677Z,5.10
2023-01-19T05:00:00.617Z,5.10
2023-01-19T05:01:00.501Z,5.10
2023-01-19T05:02:00.540Z,5.10
2023-01-19T05:03:00.867Z,5.10
2023-01-19T05:04:00.544Z,5.10
2023-01-19T05:05:00.644Z,5.10
2023-01-19T05:06:00.460Z,5.10
2023-01-19T05:07:00.469Z,5.10
2023-01-19T05:08:00.489Z,5.10
2023-01-19T05:09:00.460Z,5.10
2023-01-19T05:10:00.462Z,5.10
2023-01-19T05:11:00.477Z,5.10
2023-01-19T05:12:00.459Z,4.40
2023-01-19T05:13:00.842Z,4.40
2023-01-19T05:14:00.461Z,4.40
2023-01-19T05:15:00.668Z,4.40
2023-01-19T05:16:01.090Z,4.40
2023-01-19T05:17:00.448Z,4.40
2023-01-19T05:18:00.470Z,4.40
2023-01-19T05:19:00.511Z,4.40
2023-01-19T05:20:00.547Z,4.40
2023-01-19T05:21:01.105Z,4.40
2023-01-19T05:22:02.443Z,4.40
2023-01-19T05:23:00.734Z,4.40
2023-01-19T05:24:00.457Z,4.40
2023-01-19T05:25:00.517Z,4.40
2023-01-19T05:26:01.073Z,4.40
2023-01-19T05:27:00.610Z,4.40
2023-01-19T05:28:00.452Z,4.40
2023-01-19T05:29:00.449Z,4.40
2023-01-19T05:30:00.491Z,4.40
2023-01-19T05:31:00.543Z,4.40
2023-01-19T05:32:00.586Z,4.40
2023-01-19T05:33:00.893Z,4.40
2023-01-19T05:34:00.453Z,4.40
2023-01-19T05:35:00.563Z,4.40
2023-01-19T05:36:00.457Z,4.40
2023-01-19T05:37:00.447Z,4.40
2023-01-19T05:38:00.474Z,4.40
2023-01-19T05:39:00.469Z,4.40
2023-01-19T05:40:00.487Z,4.40
2023-01-19T05:41:00.493Z,4.40
2023-01-19T05:42:00.466Z,4.80
2023-01-19T05:43:01.600Z,4.80
2023-01-19T05:44:00.513Z,4.80
2023-01-19T05:45:00.464Z,4.80
2023-01-19T05:46:02.141Z,4.80
2023-01-19T05:47:00.514Z,4.80
2023-01-19T05:48:00.515Z,4.80
2023-01-19T05:49:00.495Z,4.80
2023-01-19T05:50:00.457Z,4.80
2023-01-19T05:51:00.745Z,4.80
2023-01-19T05:52:00.465Z,4.80
2023-01-19T05:53:01.406Z,4.80
2023-01-19T05:54:00.677Z,4.80
2023-01-19T05:55:00.455Z,4.80
2023-01-19T05:56:01.715Z,4.80
2023-01-19T05:57:00.508Z,4.80
2023-01-19T05:58:00.444Z,4.80
2023-01-19T05:59:01.007Z,4.80
2023-01-19T06:00:00.542Z,4.80
2023-01-19T06:01:02.456Z,4.80
2023-01-19T06:02:00.507Z,4.80
2023-01-19T06:03:00.968Z,4.80
2023-01-19T06:04:00.889Z,4.80
2023-01-19T06:05:00.468Z,4.80
2023-01-19T06:06:00.886Z,4.80
2023-01-19T06:07:00.480Z,4.80
2023-01-19T06:08:00.832Z,4.80
2023-01-19T06:09:00.480Z,4.80
2023-01-19T06:10:00.511Z,4.80
2023-01-19T06:11:00.561Z,4.80
2023-01-19T06:12:00.447Z,4.70
2023-01-19T06:13:00.836Z,4.70
2023-01-19T06:14:00.543Z,4.70
2023-01-19T06:15:00.502Z,4.70
2023-01-19T06:16:01.092Z,4.70
2023-01-19T06:17:00.449Z,4.70
2023-01-19T06:18:00.438Z,4.70
2023-01-19T06:19:00.516Z,4.70
2023-01-19T06:20:00.440Z,4.70
2023-01-19T06:21:08.385Z,4.70
2023-01-19T06:22:00.490Z,4.70
2023-01-19T06:23:00.927Z,4.70
2023-01-19T06:24:00.459Z,4.70
2023-01-19T06:25:00.735Z,4.70
2023-01-19T06:26:00.835Z,4.70
2023-01-19T06:27:00.485Z,4.70
2023-01-19T06:28:00.443Z,4.70
2023-01-19T06:29:00.467Z,4.70
2023-01-19T06:30:00.463Z,4.70
2023-01-19T06:31:00.742Z,4.70
2023-01-19T06:32:00.631Z,4.70
2023-01-19T06:33:01.008Z,4.70
2023-01-19T06:34:00.457Z,4.70
2023-01-19T06:35:00.554Z,4.70
2023-01-19T06:36:00.475Z,4.70
2023-01-19T06:37:00.461Z,4.70
2023-01-19T06:38:00.453Z,4.70
2023-01-19T06:39:00.498Z,4.70
2023-01-19T06:40:00.518Z,4.70
2023-01-19T06:41:00.457Z,4.70
2023-01-19T06:42:00.460Z,4.00
2023-01-19T06:43:00.776Z,4.00
2023-01-19T06:44:01.034Z,4.00
2023-01-19T06:45:00.453Z,4.00
2023-01-19T06:46:00.562Z,4.00
2023-01-19T06:47:15.176Z,4.00
2023-01-19T06:48:00.468Z,4.00
2023-01-19T06:49:00.598Z,4.00
2023-01-19T06:50:00.456Z,4.00
2023-01-19T06:51:00.516Z,4.00
2023-01-19T06:52:00.454Z,4.00
2023-01-19T06:53:00.770Z,4.00
2023-01-19T06:54:00.454Z,4.00
2023-01-19T06:55:00.514Z,4.00
2023-01-19T06:56:01.162Z,4.00
2023-01-19T06:57:02.092Z,4.00
2023-01-19T06:58:00.483Z,4.00
2023-01-19T06:59:00.446Z,4.00
2023-01-19T07:00:00.489Z,4.00
2023-01-19T07:01:01.485Z,4.00
2023-01-19T07:02:00.631Z,4.00
2023-01-19T07:03:00.849Z,4.00
2023-01-19T07:04:00.545Z,4.00
2023-01-19T07:05:00.460Z,4.00
2023-01-19T07:06:00.787Z,4.00
2023-01-19T07:07:00.457Z,4.00
2023-01-19T07:08:00.556Z,4.00
2023-01-19T07:09:00.481Z,4.00
2023-01-19T07:10:00.478Z,4.00
2023-01-19T07:11:24.816Z,4.00
2023-01-19T07:12:00.476Z,4.10
2023-01-19T07:13:00.929Z,4.10
2023-01-19T07:14:00.468Z,4.10
2023-01-19T07:15:00.498Z,4.10
2023-01-19T07:16:09.244Z,4.10
2023-01-19T07:17:00.545Z,4.10
2023-01-19T07:18:00.475Z,4.10
2023-01-19T07:19:00.468Z,4.10
2023-01-19T07:20:00.508Z,4.10
2023-01-19T07:21:00.463Z,4.10
2023-01-19T07:22:00.651Z,4.10
2023-01-19T07:23:00.838Z,4.10
2023-01-19T07:24:00.452Z,4.10
2023-01-19T07:25:00.464Z,4.10
2023-01-19T07:26:00.834Z,4.10
2023-01-19T07:27:00.453Z,4.10
2023-01-19T07:28:00.476Z,4.10
2023-01-19T07:29:00.452Z,4.10
2023-01-19T07:30:00.528Z,4.10
2023-01-19T07:31:00.544Z,4.10
2023-01-19T07:32:00.459Z,4.10
2023-01-19T07:33:00.814Z,4.10
2023-01-19T07:34:00.456Z,4.10
2023-01-19T07:35:00.497Z,4.10
2023-01-19T07:36:00.465Z,4.10
2023-01-19T07:37:00.462Z,4.10
2023-01-19T07:38:00.516Z,4.10
2023-01-19T07:39:00.584Z,4.10
2023-01-19T07:40:00.467Z,4.10
2023-01-19T07:41:01.287Z,4.10
2023-01-19T07:42:00.504Z,5.20
2023-01-19T07:43:00.794Z,5.20
2023-01-19T07:44:00.467Z,5.20
2023-01-19T07:45:00.453Z,5.20
2023-01-19T07:46:01.891Z,5.20
2023-01-19T07:47:00.473Z,5.20
2023-01-19T07:48:00.621Z,5.20
2023-01-19T07:49:00.455Z,5.20
2023-01-19T07:50:00.454Z,5.20
2023-01-19T07:51:02.369Z,5.20
2023-01-19T07:52:00.524Z,5.20
2023-01-19T07:53:04.369Z,5.20
2023-01-19T07:54:00.717Z,5.20
2023-01-19T07:55:00.522Z,5.20
2023-01-19T07:56:00.463Z,5.20
2023-01-19T07:57:00.473Z,5.20
2023-01-19T07:58:00.503Z,5.20
2023-01-19T07:59:00.483Z,5.20
2023-01-19T08:00:00.986Z,5.20
2023-01-19T08:01:04.654Z,5.20
2023-01-19T08:02:00.607Z,5.20
2023-01-19T08:03:01.515Z,5.20
2023-01-19T08:04:00.489Z,5.20
2023-01-19T08:05:00.645Z,5.20
2023-01-19T08:06:00.812Z,5.20
2023-01-19T08:07:00.513Z,5.20
2023-01-19T08:08:00.459Z,5.20
2023-01-19T08:09:00.443Z,5.20
2023-01-19T08:10:00.468Z,5.20
2023-01-19T08:11:00.477Z,5.20
2023-01-19T08:12:00.522Z,4.30
2023-01-19T08:13:00.805Z,4.30
2023-01-19T08:14:00.493Z,4.30
2023-01-19T08:15:00.452Z,4.30
2023-01-19T08:16:00.479Z,4.30
2023-01-19T08:17:01.020Z,4.30
2023-01-19T08:18:01.183Z,4.30
2023-01-19T08:19:00.559Z,4.30
2023-01-19T08:20:00.450Z,4.30
2023-01-19T08:21:00.477Z,4.30
2023-01-19T08:22:00.496Z,4.30
2023-01-19T08:23:01.049Z,4.30
2023-01-19T08:24:00.556Z,4.30
2023-01-19T08:25:00.464Z,4.30
2023-01-19T08:26:00.441Z,4.30
2023-01-19T08:27:01.453Z,4.30
2023-01-19T08:28:00.962Z,4.30
2023-01-19T08:29:02.126Z,4.30
2023-01-19T08:30:00.456Z,4.30
2023-01-19T08:31:11.105Z,4.30
2023-01-19T08:32:00.675Z,4.30
2023-01-19T08:33:00.946Z,4.30
2023-01-19T08:34:00.489Z,4.30
2023-01-19T08:35:00.453Z,4.30
2023-01-19T08:36:00.451Z,4.30
2023-01-19T08:37:00.455Z,4.30
2023-01-19T08:38:00.444Z,4.30
2023-01-19T08:39:00.470Z,4.30
2023-01-19T08:40:00.444Z,4.30
2023-01-19T08:41:00.486Z,4.30
2023-01-19T08:42:00.481Z,3.60
2023-01-19T08:43:02.222Z,3.60
2023-01-19T08:44:00.458Z,3.60
2023-01-19T08:45:00.469Z,3.60
2023-01-19T08:46:00.580Z,3.60
2023-01-19T08:47:00.464Z,3.60
2023-01-19T08:48:00.486Z,3.60
2023-01-19T08:49:00.495Z,3.60
2023-01-19T08:50:00.453Z,3.60
2023-01-19T08:51:00.473Z,3.60
2023-01-19T08:52:00.440Z,3.60
2023-01-19T08:53:01.754Z,3.60
2023-01-19T08:54:00.571Z,3.60
2023-01-19T08:55:00.482Z,3.60
2023-01-19T08:56:00.488Z,3.60
2023-01-19T08:57:00.460Z,3.60
2023-01-19T08:58:01.177Z,3.60
2023-01-19T08:59:09.363Z,3.60
2023-01-19T09:00:00.514Z,3.60
2023-01-19T09:01:02.976Z,3.60
2023-01-19T09:02:00.539Z,3.60
2023-01-19T09:03:01.099Z,3.60
2023-01-19T09:04:00.461Z,3.60
2023-01-19T09:05:00.455Z,3.60
2023-01-19T09:06:00.839Z,3.60
2023-01-19T09:07:00.500Z,3.60
2023-01-19T09:08:01.481Z,3.60
2023-01-19T09:09:00.599Z,3.60
2023-01-19T09:10:00.448Z,3.60
2023-01-19T09:11:00.946Z,3.60
2023-01-19T09:12:00.479Z,4.60
2023-01-19T09:13:01.097Z,4.60
2023-01-19T09:14:00.586Z,4.60
2023-01-19T09:15:00.481Z,4.60
2023-01-19T09:16:01.378Z,4.60
2023-01-19T09:17:00.449Z,4.60
2023-01-19T09:18:01.339Z,4.60
2023-01-19T09:19:00.484Z,4.60
2023-01-19T09:20:00.440Z,4.60
2023-01-19T09:21:00.679Z,4.60
2023-01-19T09:22:00.459Z,4.60
2023-01-19T09:23:00.487Z,4.60
2023-01-19T09:24:00.475Z,4.60
2023-01-19T09:25:00.481Z,4.60
2023-01-19T09:26:01.406Z,4.60
2023-01-19T09:27:00.480Z,4.60
2023-01-19T09:28:00.919Z,4.60
2023-01-19T09:29:00.495Z,4.60
2023-01-19T09:30:00.699Z,4.60
2023-01-19T09:31:04.483Z,4.60
2023-01-19T09:32:00.466Z,4.60
2023-01-19T09:33:02.506Z,4.60
2023-01-19T09:34:00.449Z,4.60
2023-01-19T09:35:00.469Z,4.60
2023-01-19T09:36:00.480Z,4.60
2023-01-19T09:37:00.459Z,4.60
2023-01-19T09:38:00.833Z,4.60
2023-01-19T09:39:00.465Z,4.60
2023-01-19T09:40:00.592Z,4.60
2023-01-19T09:41:00.484Z,4.60
2023-01-19T09:42:06.382Z,4.20
2023-01-19T09:43:10.361Z,4.20
2023-01-19T09:44:00.707Z,4.20
2023-01-19T09:45:03.931Z,4.20
2023-01-19T09:46:01.439Z,4.20
2023-01-19T09:47:02.744Z,4.20
2023-01-19T09:48:01.850Z,4.20
2023-01-19T09:49:02.186Z,4.20
2023-01-19T09:50:02.744Z,4.20
2023-01-19T09:51:03.216Z,4.20
2023-01-19T09:52:00.831Z,4.20
2023-01-19T09:53:09.267Z,4.20
2023-01-19T09:54:01.513Z,4.20
2023-01-19T09:55:00.460Z,4.20
2023-01-19T09:56:00.483Z,4.20
2023-01-19T09:57:00.562Z,4.20
2023-01-19T09:58:01.398Z,4.20
2023-01-19T09:59:02.014Z,4.20
2023-01-19T10:00:00.562Z,4.20
2023-01-19T10:01:08.626Z,4.20
2023-01-19T10:02:03.770Z,4.20
2023-01-19T10:03:10.377Z,4.20
2023-01-19T10:04:08.644Z,4.20
2023-01-19T10:05:01.350Z,4.20
2023-01-19T10:06:03.363Z,4.20
2023-01-19T10:07:05.535Z,4.20
2023-01-19T10:08:10.399Z,4.20
2023-01-19T10:09:06.477Z,4.20
2023-01-19T10:10:03.845Z,4.20
2023-01-19T10:11:00.725Z,4.20
2023-01-19T10:12:03.751Z,3.70
2023-01-19T10:13:10.368Z,3.70
2023-01-19T10:14:02.253Z,3.70
2023-01-19T10:15:05.315Z,3.70
2023-01-19T10:16:04.883Z,3.70
2023-01-19T10:17:10.371Z,3.70
2023-01-19T10:18:01.863Z,3.70
2023-01-19T10:19:10.387Z,3.70
2023-01-19T10:20:01.609Z,3.70
2023-01-19T10:21:00.448Z,3.70
2023-01-19T10:22:02.440Z,3.70
2023-01-19T10:23:02.853Z,3.70
2023-01-19T10:24:05.105Z,3.70
2023-01-19T10:25:02.262Z,3.70
2023-01-19T10:26:03.487Z,3.70
2023-01-19T10:27:01.158Z,3.70
2023-01-19T10:28:00.475Z,3.70
2023-01-19T10:29:11.699Z,3.70
2023-01-19T10:30:00.751Z,3.70
2023-01-19T10:31:00.805Z,3.70
2023-01-19T10:32:03.773Z,3.70
2023-01-19T10:33:00.888Z,3.70
2023-01-19T10:34:00.517Z,3.70
2023-01-19T10:35:08.554Z,3.70
2023-01-19T10:36:04.405Z,3.70
2023-01-19T10:37:03.878Z,3.70
2023-01-19T10:38:01.513Z,3.70
2023-01-19T10:39:02.336Z,3.70
2023-01-19T10:40:10.437Z,3.70
2023-01-19T10:41:03.907Z,3.70
2023-01-19T10:42:01.414Z,3.60
2023-01-19T10:43:00.977Z,3.60
2023-01-19T10:44:01.629Z,3.60
2023-01-19T10:45:00.548Z,3.60
2023-01-19T10:46:04.093Z,3.60
2023-01-19T10:47:00.603Z,3.60
2023-01-19T10:48:05.077Z,3.60
2023-01-19T10:49:00.723Z,3.60
2023-01-19T10:50:10.390Z,3.60
2023-01-19T10:51:02.954Z,3.60
2023-01-19T10:52:01.035Z,3.60
2023-01-19T10:53:01.798Z,3.60
2023-01-19T10:54:02.391Z,3.60
2023-01-19T10:55:03.229Z,3.60
2023-01-19T10:56:10.424Z,3.60
2023-01-19T10:57:02.950Z,3.60
2023-01-19T10:58:00.553Z,3.60
2023-01-19T10:59:01.722Z,3.60
2023-01-19T11:00:00.549Z,3.60
2023-01-19T11:01:10.625Z,3.60
2023-01-19T11:02:10.570Z,3.60
2023-01-19T11:03:00.823Z,3.60
2023-01-19T11:04:10.378Z,3.60
2023-01-19T11:05:10.376Z,3.60
2023-01-19T11:06:10.384Z,3.60
2023-01-19T11:07:10.383Z,3.60
2023-01-19T11:08:10.366Z,3.60
2023-01-19T11:09:10.397Z,3.60
2023-01-19T11:10:10.372Z,3.60
2023-01-19T11:11:02.052Z,3.60
2023-01-19T11:12:00.494Z,3.90
2023-01-19T11:13:04.244Z,3.90
2023-01-19T11:14:03.969Z,3.90
2023-01-19T11:15:10.383Z,3.90
2023-01-19T11:16:12.409Z,3.90
2023-01-19T11:17:00.461Z,3.90
2023-01-19T11:18:01.695Z,3.90
2023-01-19T11:19:00.584Z,3.90
2023-01-19T11:20:01.197Z,3.90
2023-01-19T11:21:02.380Z,3.90
2023-01-19T11:22:07.903Z,3.90
2023-01-19T11:23:10.360Z,3.90
2023-01-19T11:24:03.081Z,3.90
2023-01-19T11:25:02.433Z,3.90
2023-01-19T11:26:01.632Z,3.90
2023-01-19T11:27:00.571Z,3.90
2023-01-19T11:28:01.622Z,3.90
2023-01-19T11:29:01.784Z,3.90
2023-01-19T11:30:00.439Z,3.90
2023-01-19T11:31:02.394Z,3.90
2023-01-19T11:32:10.415Z,3.90
2023-01-19T11:33:00.821Z,3.90
2023-01-19T11:34:01.645Z,3.90
2023-01-19T11:35:00.466Z,3.90
2023-01-19T11:36:01.587Z,3.90
2023-01-19T11:37:03.035Z,3.90
2023-01-19T11:38:10.360Z,3.90
2023-01-19T11:39:10.371Z,3.90
2023-01-19T11:40:09.633Z,3.90
2023-01-19T11:41:00.628Z,3.90
2023-01-19T11:42:02.103Z,3.80
2023-01-19T11:43:00.750Z,3.80
2023-01-19T11:44:08.278Z,3.80
2023-01-19T11:45:06.303Z,3.80
2023-01-19T11:46:01.048Z,3.80
2023-01-19T11:47:03.416Z,3.80
2023-01-19T11:48:03.060Z,3.80
2023-01-19T11:49:00.559Z,3.80
2023-01-19T11:50:04.874Z,3.80
2023-01-19T11:51:02.706Z,3.80
2023-01-19T11:52:03.927Z,3.80
2023-01-19T11:53:05.287Z,3.80
2023-01-19T11:54:01.719Z,3.80
2023-01-19T11:55:10.372Z,3.80
2023-01-19T11:56:02.581Z,3.80
2023-01-19T11:57:00.541Z,3.80
2023-01-19T11:58:01.810Z,3.80
2023-01-19T11:59:01.272Z,3.80
2023-01-19T12:00:01.855Z,3.80
2023-01-19T12:01:10.419Z,3.80
2023-01-19T12:02:02.016Z,3.80
2023-01-19T12:03:05.898Z,3.80
2023-01-19T12:04:03.283Z,3.80
2023-01-19T12:05:04.257Z,3.80
2023-01-19T12:06:03.777Z,3.80
2023-01-19T12:07:03.302Z,3.80
2023-01-19T12:08:06.616Z,3.80
2023-01-19T12:09:03.235Z,3.80
2023-01-19T12:10:06.168Z,3.80
2023-01-19T12:11:01.670Z,3.80
2023-01-19T12:12:02.123Z,4.50
2023-01-19T12:13:01.145Z,4.50
2023-01-19T12:14:01.108Z,4.50
2023-01-19T12:15:03.683Z,4.50
2023-01-19T12:16:09.602Z,4.50
2023-01-19T12:17:02.513Z,4.50
2023-01-19T12:18:02.063Z,4.50
2023-01-19T12:19:02.595Z,4.50
2023-01-19T12:20:10.368Z,4.50
2023-01-19T12:21:03.642Z,4.50
2023-01-19T12:22:01.180Z,4.50
2023-01-19T12:23:06.504Z,4.50
2023-01-19T12:24:03.841Z,4.50
2023-01-19T12:25:04.920Z,4.50
2023-01-19T12:26:10.362Z,4.50
2023-01-19T12:27:03.777Z,4.50
2023-01-19T12:28:01.175Z,4.50
2023-01-19T12:29:10.153Z,4.50
2023-01-19T12:30:00.787Z,4.50
2023-01-19T12:31:00.701Z,4.50
2023-01-19T12:32:10.362Z,4.50
2023-01-19T12:33:10.372Z,4.50
2023-01-19T12:34:10.414Z,4.50
2023-01-19T12:35:00.619Z,4.50
2023-01-19T12:36:04.407Z,4.50
2023-01-19T12:37:01.983Z,4.50
2023-01-19T12:38:00.480Z,4.50
2023-01-19T12:39:07.944Z,4.50
2023-01-19T12:40:03.604Z,4.50
2023-01-19T12:41:10.370Z,4.50
2023-01-19T12:42:10.385Z,4.30
2023-01-19T12:43:02.430Z,4.30
2023-01-19T12:44:10.047Z,4.30
2023-01-19T12:45:10.394Z,4.30
2023-01-19T12:46:00.889Z,4.30
2023-01-19T12:47:10.373Z,4.30
2023-01-19T12:48:01.285Z,4.30
2023-01-19T12:49:10.367Z,4.30
2023-01-19T12:50:04.907Z,4.30
2023-01-19T12:51:00.470Z,4.30
2023-01-19T12:52:10.361Z,4.30
2023-01-19T12:53:01.542Z,4.30
2023-01-19T12:54:02.118Z,4.30
2023-01-19T12:55:10.382Z,4.30
2023-01-19T12:56:04.317Z,4.30
2023-01-19T12:57:04.284Z,4.30
2023-01-19T12:58:06.100Z,4.30
2023-01-19T12:59:00.741Z,4.30
2023-01-19T13:00:03.610Z,4.30
2023-01-19T13:01:10.559Z,4.30
2023-01-19T13:02:10.539Z,4.30
2023-01-19T13:03:02.670Z,4.30
2023-01-19T13:04:05.114Z,4.30
2023-01-19T13:05:10.376Z,4.30
2023-01-19T13:06:00.480Z,4.30
2023-01-19T13:07:00.439Z,4.30
2023-01-19T13:08:00.437Z,4.30
2023-01-19T13:09:00.509Z,4.30
2023-01-19T13:10:10.373Z,4.30
2023-01-19T13:11:00.711Z,4.30
2023-01-19T13:12:10.383Z,3.20
2023-01-19T13:13:10.362Z,3.20
2023-01-19T13:14:00.431Z,3.20
2023-01-19T13:15:10.362Z,3.20
2023-01-19T13:16:10.417Z,3.20
2023-01-19T13:17:01.153Z,3.20
2023-01-19T13:18:01.061Z,3.20